Time;durP1;ratioP1;P1;durP2;ratioP2;P2;SDS_P1;SDS_P2;PMS_P1;PMS_P2;Temp;Humidity;BMP_temperature;BMP_pressure;BME280_temperature;BME280_humidity;BME280_pressure;Samples;Min_cycle;Max_cycle;Signal;HPM_P1;HPM_P2
2022/11/29 00:03:53;;;;;;;34.88;21.62;;;;;;;4.74;99.93;100385.19;2872392;81;21541;-91
2022/11/29 00:07:55;;;;;;;29.42;22.05;;;;;;;4.77;99.91;100391.60;2821067;82;21017;-91
2022/11/29 00:12:11;;;;;;;28.05;21.12;;;;;;;4.79;100.00;100390.56;2803897;83;21575;-90
2022/11/29 00:16:12;;;;;;;33.33;18.30;;;;;;;4.71;100.00;100388.35;2804294;82;21048;-90
2022/11/29 00:20:13;;;;;;;33.30;21.87;;;;;;;4.70;100.00;100390.61;2869349;81;21042;-90
2022/11/29 00:24:14;;;;;;;40.60;21.23;;;;;;;4.76;100.00;100396.49;2821900;84;21018;-91
2022/11/29 00:28:15;;;;;;;33.08;21.50;;;;;;;4.71;100.00;100394.94;2865002;81;21027;-92
2022/11/29 00:32:16;;;;;;;39.13;23.52;;;;;;;4.66;100.00;100390.88;2844651;82;21083;-91
2022/11/29 00:36:19;;;;;;;38.50;24.72;;;;;;;4.67;100.00;100390.78;2873466;81;21547;-90
2022/11/29 00:40:20;;;;;;;35.78;23.92;;;;;;;4.67;100.00;100384.67;2822498;83;21025;-90
2022/11/29 00:44:21;;;;;;;32.33;22.85;;;;;;;4.65;100.00;100383.43;2864376;81;21118;-90
2022/11/29 00:48:22;;;;;;;41.80;27.00;;;;;;;4.62;100.00;100392.83;2833111;82;21036;-91
2022/11/29 00:52:23;;;;;;;41.00;26.90;;;;;;;4.65;100.00;100382.11;2833497;81;21039;-89
2022/11/29 00:56:24;;;;;;;39.53;26.85;;;;;;;4.57;100.00;100383.02;2823294;82;21075;-91
2022/11/29 01:00:26;;;;;;;42.90;25.80;;;;;;;4.66;100.00;100377.70;2814301;83;21001;-90
2022/11/29 01:04:27;;;;;;;51.48;26.75;;;;;;;4.63;100.00;100383.16;2791240;83;21067;-91
2022/11/29 01:08:28;;;;;;;37.40;25.00;;;;;;;4.67;100.00;100383.36;2785125;83;21079;-89
2022/11/29 01:12:29;;;;;;;41.55;25.88;;;;;;;4.76;100.00;100378.05;2817852;83;21044;-90
2022/11/29 01:16:30;;;;;;;43.80;25.23;;;;;;;4.76;100.00;100382.00;2829981;82;21041;-91
2022/11/29 01:20:32;;;;;;;40.70;24.30;;;;;;;4.76;100.00;100378.88;2834569;82;21013;-92
2022/11/29 01:24:33;;;;;;;42.43;24.45;;;;;;;4.70;100.00;100380.06;2827240;82;21092;-91
2022/11/29 01:28:35;;;;;;;37.95;22.65;;;;;;;4.68;100.00;100379.78;2806709;83;21662;-90
2022/11/29 01:32:37;;;;;;;37.03;23.18;;;;;;;4.66;100.00;100376.39;2838831;82;21032;-92
2022/11/29 01:36:38;;;;;;;43.73;23.98;;;;;;;4.62;100.00;100383.61;2841956;83;20989;-91
2022/11/29 01:40:39;;;;;;;36.53;23.73;;;;;;;4.78;100.00;100384.91;2839922;83;21076;-91
2022/11/29 01:45:01;;;;;;;44.35;24.45;;;;;;;4.77;100.00;100383.70;2840650;82;21029;-91
2022/11/29 01:49:19;;;;;;;38.98;24.43;;;;;;;4.86;100.00;100388.44;2841050;82;21080;-90
2022/11/29 01:53:21;;;;;;;39.18;24.98;;;;;;;4.75;100.00;100386.41;2836596;82;21048;-91
2022/11/29 01:57:22;;;;;;;36.63;23.30;;;;;;;4.73;100.00;100380.38;2803941;82;21092;-91
2022/11/29 02:01:24;;;;;;;40.80;25.85;;;;;;;4.62;100.00;100384.06;2841518;83;21056;-89
2022/11/29 02:05:26;;;;;;;38.65;23.67;;;;;;;4.70;100.00;100379.23;2863192;82;21104;-91
2022/11/29 02:09:27;;;;;;;34.48;22.82;;;;;;;4.71;100.00;100380.93;2857007;82;21046;-90
2022/11/29 02:14:12;;;;;;;37.40;25.70;;;;;;;4.65;100.00;100375.53;2864270;83;20994;-91
2022/11/29 02:18:28;;;;;;;36.77;22.07;;;;;;;4.69;100.00;100377.05;2859288;83;21022;-91
2022/11/29 02:22:52;;;;;;;42.03;24.40;;;;;;;4.76;100.00;100383.31;2715936;86;21056;-91
2022/11/29 02:27:02;;;;;;;38.25;25.02;;;;;;;4.78;100.00;100383.59;2713914;87;21088;-90
2022/11/29 02:31:55;;;;;;;35.95;21.30;;;;;;;4.70;100.00;100389.77;2716037;86;21060;-90
2022/11/29 02:36:37;;;;;;;46.05;28.52;;;;;;;4.71;100.00;100396.25;2714860;87;21058;-91
2022/11/29 02:40:52;;;;;;;38.63;22.67;;;;;;;4.79;100.00;100398.95;2716322;86;21063;-91
2022/11/29 02:45:23;;;;;;;42.13;24.30;;;;;;;4.73;100.00;100397.50;2714625;86;21041;-91
2022/11/29 02:50:03;;;;;;;39.00;23.02;;;;;;;4.70;100.00;100395.05;2715664;86;21021;-91
2022/11/29 02:54:26;;;;;;;40.23;25.25;;;;;;;4.64;100.00;100401.50;2740943;85;21026;-91
2022/11/29 02:58:55;;;;;;;39.38;24.72;;;;;;;4.61;100.00;100402.13;2766289;85;21032;-90
2022/11/29 03:03:11;;;;;;;35.70;24.82;;;;;;;4.68;100.00;100403.02;2786527;83;21107;-91
2022/11/29 03:07:58;;;;;;;38.87;23.50;;;;;;;4.67;100.00;100403.13;2793728;83;21063;-91
2022/11/29 03:12:27;;;;;;;40.98;24.30;;;;;;;4.68;100.00;100410.92;2801872;83;21746;-90
2022/11/29 03:16:45;;;;;;;43.87;24.60;;;;;;;4.67;100.00;100413.18;2793059;84;21517;-91
2022/11/29 03:21:30;;;;;;;34.38;25.10;;;;;;;4.57;100.00;100410.20;2793924;85;21168;-90
2022/11/29 03:25:39;;;;;;;37.17;23.07;;;;;;;4.62;100.00;100418.31;2768915;84;20992;-90
2022/11/29 03:29:59;;;;;;;45.28;25.92;;;;;;;4.67;100.00;100411.86;2757497;85;21062;-90
2022/11/29 03:34:23;;;;;;;37.70;23.65;;;;;;;4.66;100.00;100418.06;2727718;87;21088;-89
2022/11/29 03:38:39;;;;;;;37.33;25.08;;;;;;;4.66;100.00;100422.50;2772252;84;21035;-89
2022/11/29 03:42:45;;;;;;;36.38;24.67;;;;;;;4.66;100.00;100425.14;2736536;86;21632;-90
2022/11/29 03:46:58;;;;;;;38.65;23.75;;;;;;;4.68;100.00;100416.68;2725161;84;21090;-89
2022/11/29 03:51:17;;;;;;;31.20;20.68;;;;;;;4.61;100.00;100428.02;2742081;85;21090;-90
2022/11/29 03:55:44;;;;;;;34.23;24.12;;;;;;;4.53;100.00;100421.02;2778700;85;21014;-90
2022/11/29 04:00:04;;;;;;;;;;;;;;;4.50;100.00;100420.70;2810732;83;21533;-91
2022/11/29 04:04:27;;;;;;;43.60;24.57;;;;;;;4.48;100.00;100424.34;2797278;83;20126;-91
2022/11/29 04:09:24;;;;;;;38.02;26.68;;;;;;;4.52;100.00;100425.41;2783594;84;21057;-90
2022/11/29 04:13:55;;;;;;;46.58;25.43;;;;;;;4.50;100.00;100429.92;2802583;84;21085;-91
2022/11/29 04:18:23;;;;;;;36.05;23.18;;;;;;;4.48;100.00;100433.56;2780802;84;21061;-91
2022/11/29 04:22:53;;;;;;;37.23;24.60;;;;;;;4.47;100.00;100437.13;2804050;84;21018;-89
2022/11/29 04:27:24;;;;;;;35.45;22.30;;;;;;;4.38;100.00;100438.02;2677935;87;21022;-88
2022/11/29 04:31:54;;;;;;;38.80;24.98;;;;;;;4.20;100.00;100445.09;2676329;87;21172;-88
2022/11/29 04:36:32;;;;;;;36.58;22.07;;;;;;;4.19;100.00;100453.09;2659907;88;21075;-88
2022/11/29 04:41:13;;;;;;;33.40;21.75;;;;;;;4.04;100.00;100457.39;2663602;88;21082;-88
2022/11/29 04:45:52;;;;;;;41.83;23.98;;;;;;;3.93;100.00;100455.28;2607771;89;21104;-88
2022/11/29 04:50:10;;;;;;;34.25;23.10;;;;;;;3.88;100.00;100455.54;2607511;89;21092;-88
2022/11/29 04:54:38;;;;;;;42.98;23.22;;;;;;;3.88;100.00;100452.04;2636274;88;21637;-89
2022/11/29 04:59:02;;;;;;;43.02;25.30;;;;;;;3.82;100.00;100458.02;2635774;89;21111;-88
2022/11/29 05:03:16;;;;;;;42.25;25.15;;;;;;;3.76;100.00;100463.59;2676503;87;21064;-88
2022/11/29 05:07:47;;;;;;;42.65;26.50;;;;;;;3.71;100.00;100461.19;2721387;85;21042;-88
2022/11/29 05:11:57;;;;;;;39.60;25.10;;;;;;;3.75;100.00;100460.58;2745874;85;21542;-88
2022/11/29 05:16:24;;;;;;;45.28;27.65;;;;;;;3.79;100.00;100469.15;2797648;83;21090;-89
2022/11/29 05:20:54;;;;;;;45.48;27.00;;;;;;;3.84;100.00;100468.48;2750367;85;21107;-89
2022/11/29 05:25:04;;;;;;;34.18;23.47;;;;;;;3.79;100.00;100469.15;2793699;84;21077;-89
2022/11/29 05:29:10;;;;;;;36.85;22.32;;;;;;;3.68;100.00;100474.95;2729897;87;21057;-88
2022/11/29 05:33:36;;;;;;;44.80;28.55;;;;;;;3.62;100.00;100482.68;2729661;86;21030;-89
2022/11/29 05:38:09;;;;;;;45.63;25.85;;;;;;;3.71;100.00;100485.32;2718997;86;21121;-89
2022/11/29 05:42:47;;;;;;;35.55;24.20;;;;;;;3.68;100.00;100488.11;2728848;86;21058;-87
2022/11/29 05:46:57;;;;;;;52.83;30.08;;;;;;;3.72;100.00;100494.91;2724684;86;21074;-89
2022/11/29 05:51:16;;;;;;;36.08;24.35;;;;;;;3.76;100.00;100500.89;2806436;84;21066;-89
2022/11/29 05:55:34;;;;;;;47.38;27.50;;;;;;;3.77;100.00;100503.45;2800331;84;21207;-89
2022/11/29 05:59:38;;;;;;;50.48;29.65;;;;;;;3.77;100.00;100496.88;2777626;85;21083;-89
2022/11/29 06:04:04;;;;;;;42.78;26.52;;;;;;;3.93;100.00;100502.66;2719155;85;21074;-89
2022/11/29 06:08:23;;;;;;;51.43;23.73;;;;;;;3.91;100.00;100503.20;2761058;85;21038;-89
2022/11/29 06:12:30;;;;;;;42.58;27.82;;;;;;;3.83;100.00;100510.16;2785298;85;21469;-89
2022/11/29 06:16:39;;;;;;;47.95;27.17;;;;;;;3.83;100.00;100510.16;2783076;85;21149;-88
2022/11/29 06:20:59;;;;;;;46.98;30.45;;;;;;;3.77;100.00;100513.98;2769555;85;21090;-89
2022/11/29 06:25:08;;;;;;;49.25;28.83;;;;;;;3.79;100.00;100517.83;2771932;85;21046;-89
2022/11/29 06:29:20;;;;;;;38.70;24.60;;;;;;;3.84;100.00;100517.16;2760276;85;21074;-89
2022/11/29 06:33:27;;;;;;;38.98;24.77;;;;;;;3.93;100.00;100521.08;2784367;85;21062;-89
2022/11/29 06:37:37;;;;;;;37.25;23.85;;;;;;;3.95;100.00;100524.52;2779969;84;21069;-89
2022/11/29 06:41:38;;;;;;;52.98;27.58;;;;;;;3.95;100.00;100524.52;2762627;85;21392;-89
2022/11/29 06:45:45;;;;;;;46.55;28.32;;;;;;;4.00;100.00;100529.08;2793489;85;21038;-89
2022/11/29 06:49:57;;;;;;;42.75;28.10;;;;;;;4.11;100.00;100533.31;2761728;83;21130;-88
2022/11/29 06:54:30;;;;;;;53.23;28.32;;;;;;;4.12;100.00;100540.77;2754075;85;21090;-89
2022/11/29 06:58:57;;;;;;;40.70;23.25;;;;;;;4.27;100.00;100546.56;2784177;85;21197;-89
2022/11/29 07:03:30;;;;;;;52.23;29.37;;;;;;;4.19;100.00;100557.11;2788209;84;21101;-89
2022/11/29 07:07:33;;;;;;;50.92;29.00;;;;;;;4.20;100.00;100554.38;2798107;83;21235;-89
2022/11/29 07:11:35;;;;;;;46.65;29.63;;;;;;;4.19;100.00;100563.69;2775546;84;21069;-89
2022/11/29 07:15:41;;;;;;;44.45;26.95;;;;;;;4.20;100.00;100562.76;2767975;84;21584;-89
2022/11/29 07:20:18;;;;;;;49.30;27.20;;;;;;;4.31;100.00;100561.73;2803734;83;21077;-89
2022/11/29 07:24:25;;;;;;;;;;;;;;;4.36;100.00;100555.78;2792628;84;21077;-89
2022/11/29 07:28:38;;;;;;;36.93;26.27;;;;;;;4.49;100.00;100560.39;2798461;84;20134;-89
2022/11/29 07:33:08;;;;;;;36.98;24.07;;;;;;;4.49;100.00;100561.71;2714889;86;21091;-88
2022/11/29 07:37:41;;;;;;;35.10;22.27;;;;;;;4.56;100.00;100563.11;2778149;85;21054;-89
2022/11/29 07:42:03;;;;;;;36.20;18.40;;;;;;;4.56;100.00;100560.48;2793076;84;21045;-89
2022/11/29 07:46:04;;;;;;;37.03;22.20;;;;;;;4.68;100.00;100564.25;2778573;84;21099;-89
2022/11/29 07:50:07;;;;;;;37.20;23.07;;;;;;;4.73;100.00;100569.28;2773694;85;21336;-89
2022/11/29 07:54:12;;;;;;;34.48;19.37;;;;;;;4.85;100.00;100575.20;2748852;84;21034;-89
2022/11/29 07:58:15;;;;;;;33.50;19.75;;;;;;;4.91;100.00;100582.77;2749661;85;21030;-89
2022/11/29 08:02:28;;;;;;;30.17;19.20;;;;;;;4.94;100.00;100580.00;2740824;85;21668;-89
2022/11/29 08:06:29;;;;;;;38.35;21.60;;;;;;;5.04;100.00;100582.13;2743841;85;21112;-89
2022/11/29 08:10:30;;;;;;;31.10;16.97;;;;;;;5.13;100.00;100576.37;2721379;87;21054;-89
2022/11/29 08:14:32;;;;;;;23.57;17.20;;;;;;;5.18;100.00;100580.92;2750701;85;21041;-89
2022/11/29 08:18:35;;;;;;;28.07;19.62;;;;;;;5.19;100.00;100576.48;2745430;85;21160;-89
2022/11/29 08:22:37;;;;;;;33.50;21.52;;;;;;;5.22;100.00;100581.12;2705873;87;21121;-88
2022/11/29 08:26:38;;;;;;;45.80;26.42;;;;;;;5.24;100.00;100579.25;2751654;85;21022;-89
2022/11/29 08:30:39;;;;;;;34.88;21.85;;;;;;;5.33;100.00;100578.38;2747496;85;21537;-89
2022/11/29 08:34:40;;;;;;;31.52;21.30;;;;;;;5.36;100.00;100576.89;2706879;87;21578;-89
2022/11/29 08:38:41;;;;;;;33.60;20.65;;;;;;;5.35;100.00;100577.83;2741951;85;21084;-89
2022/11/29 08:42:42;;;;;;;33.05;19.95;;;;;;;5.37;100.00;100580.74;2747546;83;21093;-88
2022/11/29 08:51:05;;;;;;;35.88;20.65;;;;;;;5.52;100.00;100588.30;2720543;87;21031;-89
2022/11/29 08:55:07;;;;;;;27.62;18.40;;;;;;;5.60;100.00;100594.92;2774015;84;21103;-90
2022/11/29 08:59:08;;;;;;;30.50;17.92;;;;;;;5.57;99.66;100592.84;2762293;85;21034;-89
2022/11/29 09:07:29;;;;;;;32.13;22.02;;;;;;;5.48;99.91;100601.25;2760934;85;21537;-90
2022/11/29 09:11:33;;;;;;;36.13;20.95;;;;;;;5.57;99.38;100609.13;2775684;84;21049;-89
2022/11/29 09:15:36;;;;;;;40.43;26.55;;;;;;;5.57;99.79;100608.67;2779623;84;21659;-89
2022/11/29 09:19:37;;;;;;;41.92;28.35;;;;;;;5.61;99.69;100612.00;2680159;87;21108;-89
2022/11/29 09:23:41;;;;;;;70.10;35.85;;;;;;;5.68;99.64;100619.08;2762500;85;21057;-89
2022/11/29 09:27:42;;;;;;;50.70;38.35;;;;;;;5.68;99.92;100619.08;2784064;85;21050;-89
2022/11/29 09:31:44;;;;;;;49.03;35.35;;;;;;;5.88;98.86;100618.42;2781133;85;21039;-89
2022/11/29 09:35:45;;;;;;;51.68;41.50;;;;;;;5.96;98.48;100621.50;2727766;85;21046;-88
2022/11/29 09:39:46;;;;;;;41.60;28.00;;;;;;;6.10;98.07;100612.80;2779130;85;21003;-89
2022/11/29 09:44:20;;;;;;;64.30;39.83;;;;;;;6.22;97.56;100616.06;2763061;85;21007;-89
2022/11/29 09:48:36;;;;;;;42.05;28.83;;;;;;;6.41;97.23;100618.95;2808568;84;21129;-89
2022/11/29 09:53:25;;;;;;;41.48;25.23;;;;;;;6.55;97.46;100619.45;2611323;89;21046;-89
2022/11/29 09:57:28;;;;;;;37.60;24.57;;;;;;;6.62;96.30;100621.26;2597251;89;21055;-90
2022/11/29 10:01:40;;;;;;;33.00;24.55;;;;;;;6.70;95.21;100627.78;2595493;89;21085;-88
2022/11/29 10:05:50;;;;;;;38.92;28.73;;;;;;;6.79;95.56;100626.38;2601658;89;21074;-89
2022/11/29 10:10:08;;;;;;;39.13;25.65;;;;;;;6.89;94.17;100624.03;2593011;90;21136;-89
2022/11/29 10:14:20;;;;;;;41.33;23.92;;;;;;;6.99;89.12;100633.57;2601767;89;21074;-89
2022/11/29 10:18:35;;;;;;;46.00;27.70;;;;;;;6.98;86.70;100627.42;2588080;90;21138;-89
2022/11/29 10:23:15;;;;;;;35.60;23.67;;;;;;;7.03;86.87;100627.14;2601595;89;21707;-89
2022/11/29 10:27:22;;;;;;;32.80;22.17;;;;;;;7.12;87.04;100625.23;2587670;90;21089;-88
2022/11/29 10:31:35;;;;;;;33.13;20.68;;;;;;;7.15;86.75;100629.50;2694132;86;21053;-89
2022/11/29 10:35:36;;;;;;;30.30;18.05;;;;;;;7.10;84.78;100624.97;2791872;83;21045;-89
2022/11/29 10:39:48;;;;;;;33.53;20.48;;;;;;;7.16;85.58;100625.91;2773277;84;21026;-89
2022/11/29 10:43:50;;;;;;;33.38;21.77;;;;;;;7.15;85.45;100633.47;2809952;84;21029;-89
2022/11/29 10:47:55;;;;;;;38.40;20.97;;;;;;;7.20;86.72;100639.31;2791526;84;21062;-89
2022/11/29 10:51:56;;;;;;;34.53;22.02;;;;;;;7.17;85.19;100625.42;2781203;84;21093;-89
2022/11/29 10:56:09;;;;;;;37.33;21.87;;;;;;;7.25;85.75;100629.28;2806062;84;21659;-89
2022/11/29 11:00:12;;;;;;;32.98;24.72;;;;;;;7.22;85.64;100617.58;2773907;84;21037;-88
2022/11/29 11:04:36;;;;;;;25.27;19.77;;;;;;;7.36;85.68;100622.48;2798232;84;21078;-89
2022/11/29 11:08:41;;;;;;;43.98;27.95;;;;;;;7.48;84.61;100617.75;2709883;87;21040;-89
2022/11/29 11:12:48;;;;;;;51.50;31.50;;;;;;;7.42;83.85;100608.85;2746499;85;21542;-89
2022/11/29 11:16:49;;;;;;;42.95;31.12;;;;;;;7.53;85.65;100612.14;2805517;83;21565;-89
2022/11/29 11:20:54;;;;;;;36.75;25.52;;;;;;;7.61;83.45;100616.95;2792097;84;21057;-89
2022/11/29 11:25:00;;;;;;;66.67;36.03;;;;;;;7.68;83.66;100616.95;2804665;84;21073;-89
2022/11/29 11:29:02;;;;;;;;;;;;;;;7.55;81.42;100615.08;2788702;84;21327;-89
2022/11/29 11:33:26;;;;;;;37.58;23.62;;;;;;;7.66;82.13;100611.73;2789590;84;20132;-89
2022/11/29 11:37:31;;;;;;;33.00;23.87;;;;;;;7.72;81.92;100616.63;2785671;84;21644;-89
2022/11/29 11:46:02;;;;;;;43.30;26.65;;;;;;;7.96;81.88;100624.41;2784977;84;21550;-89
2022/11/29 11:50:07;;;;;;;34.92;19.62;;;;;;;7.99;82.40;100622.42;2806524;84;21100;-89
2022/11/29 11:54:14;;;;;;;39.50;28.87;;;;;;;7.86;80.29;100622.84;2772452;84;21442;-89
2022/11/29 11:58:22;;;;;;;37.10;22.27;;;;;;;7.88;79.52;100627.55;2758818;85;21077;-89
2022/11/29 12:02:28;;;;;;;33.55;20.35;;;;;;;7.88;79.81;100633.34;2774537;85;21074;-88
2022/11/29 12:06:55;;;;;;;36.70;23.00;;;;;;;7.84;79.55;100637.48;2751887;85;21038;-89
2022/11/29 12:11:01;;;;;;;41.30;26.80;;;;;;;7.91;80.39;100647.70;2752571;85;21030;-89
2022/11/29 12:15:18;;;;;;;;;;;;;;;7.97;79.70;100642.00;2778198;84;21057;-88
2022/11/29 12:19:28;;;;;;;48.13;33.15;;;;;;;7.89;81.13;100649.12;2787126;84;20123;-88
2022/11/29 12:23:43;;;;;;;45.43;26.93;;;;;;;8.01;80.62;100644.81;2744168;85;21084;-88
2022/11/29 12:27:45;;;;;;;49.90;29.27;;;;;;;7.97;77.96;100648.62;2659865;89;21091;-89
2022/11/29 12:32:04;;;;;;;51.23;31.48;;;;;;;8.03;79.69;100643.41;2736670;86;21022;-88
2022/11/29 12:36:13;;;;;;;53.85;28.92;;;;;;;7.86;80.24;100645.34;2707985;86;21038;-89
2022/11/29 12:40:55;;;;;;;39.55;28.32;;;;;;;7.79;79.58;100645.38;2741812;86;21883;-89
2022/11/29 12:45:48;;;;;;;81.87;46.70;;;;;;;7.69;80.49;100649.93;2766031;85;21049;-89
2022/11/29 12:50:31;;;;;;;50.67;27.98;;;;;;;7.53;79.51;100647.88;2728578;84;21034;-88
2022/11/29 12:54:58;;;;;;;65.92;42.83;;;;;;;7.44;80.66;100662.54;2649811;88;21073;-89
2022/11/29 12:59:24;;;;;;;61.25;38.42;;;;;;;7.34;81.40;100655.65;2702616;86;21042;-89
2022/11/29 13:03:39;;;;;;;59.63;28.73;;;;;;;7.20;81.02;100667.09;2669582;86;21042;-89
2022/11/29 13:07:46;;;;;;;64.73;32.77;;;;;;;7.15;81.53;100669.19;2747233;85;21085;-89
2022/11/29 13:12:04;;;;;;;40.90;23.80;;;;;;;7.07;81.75;100670.97;2628842;88;21092;-89
2022/11/29 13:16:47;;;;;;;49.45;29.25;;;;;;;7.03;81.68;100668.14;2708132;86;21062;-89
2022/11/29 13:21:02;;;;;;;65.90;35.38;;;;;;;6.91;81.57;100671.52;2723009;85;21025;-89
2022/11/29 13:25:19;;;;;;;43.87;27.10;;;;;;;6.90;82.04;100674.66;2672077;88;21102;-89
2022/11/29 13:29:21;;;;;;;39.70;23.62;;;;;;;6.83;82.60;100675.95;2759242;84;21341;-89
2022/11/29 13:33:53;;;;;;;47.43;27.48;;;;;;;6.68;82.79;100677.27;2645126;88;21584;-89
2022/11/29 13:38:00;;;;;;;35.23;22.77;;;;;;;6.72;82.59;100681.88;2707297;86;21070;-89
2022/11/29 13:42:21;;;;;;;53.73;34.13;;;;;;;6.73;83.84;100687.55;2724791;85;20994;-89
2022/11/29 13:46:37;;;;;;;68.78;42.30;;;;;;;6.64;84.67;100689.42;2729990;85;21431;-88
2022/11/29 13:50:44;;;;;;;83.30;40.23;;;;;;;6.60;85.73;100691.38;2724695;85;20990;-88
2022/11/29 13:54:45;;;;;;;148.60;81.17;;;;;;;6.54;86.42;100693.08;2633374;88;21182;-89
2022/11/29 13:58:53;;;;;;;114.10;56.02;;;;;;;6.48;86.65;100697.38;2720145;86;21129;-89
2022/11/29 14:02:57;;;;;;;60.38;40.73;;;;;;;6.51;87.37;100709.95;2745928;85;21074;-95
2022/11/29 14:07:06;;;;;;;78.90;46.58;;;;;;;6.64;86.67;100708.77;2736101;85;21136;-92
2022/11/29 14:11:16;;;;;;;82.92;44.60;;;;;;;6.65;86.41;100715.75;2703989;86;22307;-91
2022/11/29 14:15:27;;;;;;;111.42;67.72;;;;;;;6.61;86.34;100714.23;2718235;85;21767;-93
2022/11/29 14:19:34;;;;;;;103.80;50.40;;;;;;;6.52;85.35;100718.27;2764272;84;21065;-93
2022/11/29 14:23:43;;;;;;;103.32;53.05;;;;;;;6.52;85.33;100722.72;2664727;88;21129;-95
2022/11/29 14:27:51;;;;;;;91.22;43.35;;;;;;;6.42;85.72;100727.67;2646351;88;21067;-94
2022/11/29 14:31:54;;;;;;;44.23;27.37;;;;;;;6.41;86.34;100736.06;2702960;86;21050;-96
2022/11/29 14:36:24;;;;;;;45.58;29.20;;;;;;;6.43;85.42;100732.86;2678282;86;21026;-94
2022/11/29 14:40:43;;;;;;;51.37;28.12;;;;;;;6.49;85.24;100739.59;2714747;84;21066;-90
2022/11/29 14:44:59;;;;;;;71.57;40.92;;;;;;;6.47;85.14;100740.61;2698038;87;21027;-95
2022/11/29 14:49:03;;;;;;;95.00;50.20;;;;;;;6.40;85.58;100741.45;2685638;86;21070;-93
2022/11/29 14:53:08;;;;;;;85.85;49.67;;;;;;;6.31;87.53;100740.19;2697275;87;21812;-94
2022/11/29 14:57:57;;;;;;;54.77;35.20;;;;;;;6.13;88.59;100740.73;2667801;88;21027;-92
2022/11/29 15:02:20;;;;;;;51.50;35.88;;;;;;;6.07;88.26;100745.88;2661465;87;21065;-94
2022/11/29 15:06:26;;;;;;;57.58;38.05;;;;;;;6.02;88.25;100747.10;2668757;87;21081;-93
2022/11/29 15:10:32;;;;;;;64.80;40.98;;;;;;;5.95;88.84;100748.70;2670254;88;21042;-93
2022/11/29 15:15:18;;;;;;;73.42;43.90;;;;;;;5.93;88.76;100743.14;2669801;88;21088;-94
2022/11/29 15:19:37;;;;;;;80.90;57.03;;;;;;;5.91;88.61;100752.94;2677148;87;21081;-91
2022/11/29 15:23:42;;;;;;;70.62;48.98;;;;;;;5.92;88.08;100757.29;2717362;86;21126;-93
2022/11/29 15:27:54;;;;;;;44.75;31.15;;;;;;;5.90;87.75;100759.16;2719298;85;21018;-92
2022/11/29 15:32:03;;;;;;;45.15;32.60;;;;;;;5.81;87.87;100760.03;2727563;86;21049;-93
2022/11/29 15:36:09;;;;;;;58.48;38.38;;;;;;;5.73;88.70;100763.56;2729237;85;21140;-93
2022/11/29 15:40:18;;;;;;;56.33;36.53;;;;;;;5.67;88.49;100767.38;2729178;85;21062;-93
2022/11/29 15:44:22;;;;;;;58.20;38.02;;;;;;;5.57;89.06;100767.02;2729554;86;21548;-94
2022/11/29 15:48:27;;;;;;;70.70;42.55;;;;;;;5.55;89.46;100773.30;2668973;86;21073;-94
2022/11/29 15:52:34;;;;;;;51.08;34.38;;;;;;;5.58;89.25;100775.32;2729404;86;21078;-94
2022/11/29 15:56:53;;;;;;;44.15;30.48;;;;;;;5.58;88.78;100781.92;2713768;86;21326;-93
2022/11/29 16:00:57;;;;;;;45.35;31.12;;;;;;;5.65;88.37;100784.22;2718757;86;21042;-94
2022/11/29 16:05:14;;;;;;;57.90;35.63;;;;;;;5.63;88.38;100776.86;2709569;85;32797;-95
2022/11/29 16:09:24;;;;;;;63.50;41.55;;;;;;;5.61;88.31;100771.67;2717922;86;21703;-94
2022/11/29 16:13:33;;;;;;;67.60;43.40;;;;;;;5.58;88.46;100779.28;2721777;85;21085;-95
2022/11/29 16:17:35;;;;;;;60.65;37.98;;;;;;;5.57;89.33;100781.53;2720589;86;21449;-96
2022/11/29 16:21:36;;;;;;;66.37;38.95;;;;;;;5.42;89.82;100779.25;2722087;86;21034;-94
2022/11/29 16:25:55;;;;;;;66.05;41.77;;;;;;;5.38;90.01;100784.75;2662995;86;21018;-95
2022/11/29 16:29:57;;;;;;;77.25;50.05;;;;;;;5.37;89.63;100789.65;2717478;86;21025;-91
2022/11/29 16:34:08;;;;;;;77.17;48.10;;;;;;;5.36;89.50;100785.30;2720415;85;21557;-91
2022/11/29 16:38:20;;;;;;;77.72;51.42;;;;;;;5.31;89.94;100796.57;2716630;86;21159;-94
2022/11/29 16:42:25;;;;;;;77.92;47.08;;;;;;;5.29;89.67;100797.47;2715270;86;21103;-95
2022/11/29 16:46:34;;;;;;;64.03;43.52;;;;;;;5.29;89.48;100804.06;2706728;86;21065;-93
2022/11/29 16:50:36;;;;;;;106.12;64.87;;;;;;;5.26;89.64;100800.27;2721625;85;21511;-94
2022/11/29 17:08:31;;;;;;;67.37;44.67;;;;;;;4.97;90.36;100818.44;2667589;87;21155;-58
2022/11/29 17:12:33;;;;;;;71.12;47.33;;;;;;;4.94;90.36;100821.23;2681105;87;21027;-59
2022/11/29 17:16:34;;;;;;;66.28;43.15;;;;;;;4.92;90.56;100827.05;2669177;87;21031;-59
2022/11/29 17:20:36;;;;;;;54.40;36.75;;;;;;;4.90;90.39;100826.73;2676098;87;21106;-59
2022/11/29 17:24:39;;;;;;;51.75;36.55;;;;;;;4.81;90.67;100837.26;2660245;88;21020;-60
2022/11/29 17:28:45;;;;;;;83.25;53.78;;;;;;;4.73;90.62;100839.42;2684754;88;21020;-59
2022/11/29 17:32:47;;;;;;;55.63;40.80;;;;;;;4.73;90.59;100841.58;2689101;85;21079;-61
2022/11/29 17:36:53;;;;;;;57.48;35.30;;;;;;;4.76;90.33;100844.55;2688869;87;20968;-61
2022/11/29 17:40:54;;;;;;;58.28;35.83;;;;;;;4.69;89.88;100847.45;2659199;87;21050;-60
2022/11/29 17:44:55;;;;;;;52.13;37.73;;;;;;;4.55;89.69;100851.23;2666642;86;21043;-59
2022/11/29 17:49:14;;;;;;;50.52;34.03;;;;;;;4.46;89.98;100862.20;2684441;85;21067;-59
2022/11/29 17:53:15;;;;;;;55.78;36.15;;;;;;;4.41;90.13;100856.69;2689033;85;21067;-60
2022/11/29 17:57:18;;;;;;;54.93;35.40;;;;;;;4.38;89.62;100858.16;2690046;88;21039;-61
2022/11/29 18:01:23;;;;;;;49.80;34.40;;;;;;;4.31;89.76;100863.78;2646470;88;20996;-59
2022/11/29 18:05:26;;;;;;;47.40;32.80;;;;;;;4.27;89.82;100865.69;2696249;85;21082;-60
2022/11/29 18:09:29;;;;;;;59.88;39.38;;;;;;;4.25;90.04;100859.64;2689665;84;21643;-59
2022/11/29 18:13:30;;;;;;;66.45;44.75;;;;;;;4.26;89.91;100865.30;2689960;88;21047;-59
2022/11/29 18:17:31;;;;;;;59.18;37.90;;;;;;;4.28;89.60;100868.71;2692331;85;21023;-60
2022/11/29 18:21:34;;;;;;;44.05;33.53;;;;;;;4.26;89.31;100868.80;2689809;84;21007;-59
2022/11/29 18:25:35;;;;;;;47.35;31.57;;;;;;;4.22;89.62;100871.64;2690064;85;21028;-61
2022/11/29 18:29:36;;;;;;;57.73;43.55;;;;;;;4.19;89.43;100868.67;2688394;88;21379;-60
2022/11/29 18:33:39;;;;;;;76.02;56.15;;;;;;;4.19;89.56;100876.57;2687940;87;21044;-65
2022/11/29 18:37:40;;;;;;;68.60;46.90;;;;;;;4.13;89.74;100884.31;2688814;85;21103;-63
2022/11/29 18:41:44;;;;;;;58.02;42.95;;;;;;;4.01;90.26;100883.53;2688361;88;21090;-64
2022/11/29 18:45:46;;;;;;;65.87;45.23;;;;;;;3.95;90.69;100891.72;2689347;87;21015;-65
2022/11/29 18:49:48;;;;;;;68.72;44.80;;;;;;;3.97;90.55;100893.81;2689364;85;21162;-64
2022/11/29 18:53:50;;;;;;;51.75;33.25;;;;;;;3.91;91.14;100893.63;2673380;87;21015;-64
2022/11/29 18:57:52;;;;;;;35.98;27.65;;;;;;;3.80;91.35;100899.36;2674911;87;21118;-64
2022/11/29 19:01:59;;;;;;;46.20;35.70;;;;;;;3.70;93.23;100898.03;2656228;88;21095;-63
2022/11/29 19:06:05;;;;;;;46.98;31.80;;;;;;;3.77;93.36;100896.87;2688664;84;21071;-64
2022/11/29 19:10:08;;;;;;;40.67;28.40;;;;;;;3.85;93.26;100891.27;2682446;87;21103;-64
2022/11/29 19:14:11;;;;;;;51.37;33.00;;;;;;;3.85;93.02;100892.59;2682109;87;21067;-64
2022/11/29 19:18:12;;;;;;;48.00;30.85;;;;;;;3.84;93.29;100895.66;2685115;88;21044;-63
2022/11/29 19:22:22;;;;;;;43.92;28.77;;;;;;;3.73;94.56;100899.21;2725740;87;20992;-63
2022/11/29 19:26:26;;;;;;;64.12;38.42;;;;;;;3.66;95.02;100906.98;2704819;86;21045;-63
2022/11/29 19:30:33;;;;;;;59.67;35.48;;;;;;;3.64;95.24;100911.02;2682896;89;21063;-64
2022/11/29 19:34:34;;;;;;;58.28;35.33;;;;;;;3.56;95.65;100912.66;2680524;89;21064;-63
2022/11/29 19:38:37;;;;;;;48.83;31.12;;;;;;;3.56;95.45;100913.97;2682887;87;21063;-63
2022/11/29 19:42:38;;;;;;;40.45;26.37;;;;;;;3.57;94.67;100914.81;2682773;87;21082;-63